Svir' — UAOO — position and weather

sailwx.info

Track history (hours):
 
Tides and Currents Weather Stations Pressure Air Temp Water Temp Dewpoint Dewpoint Depression Visibility Wind Speed Wind Dir Waves Ship Positions

Svir'

Last reported at 2018-Feb-21 10:08 UTC. Time now 2018-Feb-21 21:28 UTC.
Position N 45°20' E 036°28'.

Length 106 m; draft 3.8 m.

Type: Cargo ship. MMSI: 273310800.

Date/timePositionNaut miles runAvg speedWind from/ knotsBaromVisibWave heightAir tempDewpointWater temp
2018-Feb-21 10:08N 45°20' E 036°28'0 0.0
2018-Feb-21 09:20N 45°20' E 036°28'0 0.0
2018-Feb-21 08:59N 45°20' E 036°28'0 0.0
2018-Feb-20 13:30N 45°20' E 036°28'2 3.7
2018-Feb-20 12:56N 45°20' E 036°31'2 5.0
2018-Feb-20 12:30N 45°20' E 036°34'4 7.7
2018-Feb-20 12:00N 45°21' E 036°39'2 3.3
2018-Feb-20 11:29N 45°22' E 036°41'0 0.0
2018-Feb-20 10:59N 45°22' E 036°41'0 0.0
2018-Feb-20 10:24N 45°22' E 036°41'1 1.3
2018-Feb-20 09:54N 45°21' E 036°40'1 1.7
2018-Feb-20 09:30N 45°21' E 036°40'0 0.8
2018-Feb-20 08:56N 45°20' E 036°40'0 0.0
2018-Feb-20 08:28N 45°20' E 036°40'0 0.0
2018-Feb-20 07:56N 45°20' E 036°40'0 0.0
2018-Feb-20 07:29N 45°20' E 036°40'0 0.0
2018-Feb-20 06:59N 45°20' E 036°40'0 0.0
2018-Feb-20 06:25N 45°20' E 036°40'0 0.0
2018-Feb-20 05:59N 45°20' E 036°40'0 0.0
2018-Feb-20 05:29N 45°20' E 036°40'0 0.0
2018-Feb-20 04:59N 45°20' E 036°40'0 0.6
2018-Feb-20 04:30N 45°21' E 036°40'1 1.6
2018-Feb-20 03:56N 45°21' E 036°40'0 0.4
2018-Feb-20 03:24N 45°21' E 036°40'2 4.9
2018-Feb-20 03:00N 45°21' E 036°37'3 6.4
2018-Feb-20 02:30N 45°19' E 036°33'2 4.3
2018-Feb-20 01:59N 45°20' E 036°30'2 0.1
2018-Feb-19 12:18N 45°20' E 036°28'0 0.0
2018-Feb-19 11:48N 45°20' E 036°28'0 0.0
2018-Feb-19 11:19N 45°20' E 036°28'0 0.0
2018-Feb-19 09:19N 45°20' E 036°28'0 0.0
2018-Feb-18 10:43N 45°20' E 036°28'1 2.6
2018-Feb-18 10:31N 45°20' E 036°29'2 3.6
2018-Feb-18 09:54N 45°19' E 036°31'2 5.7
2018-Feb-18 09:30N 45°20' E 036°34'3 6.5
2018-Feb-18 09:00N 45°21' E 036°38'3 4.9
2018-Feb-18 08:29N 45°22' E 036°41'0 0.0
2018-Feb-18 08:00N 45°22' E 036°41'2 3.2
2018-Feb-18 07:30N 45°21' E 036°40'1 1.8
2018-Feb-18 06:58N 45°20' E 036°40'0 0.0
2018-Feb-18 06:29N 45°20' E 036°40'0 0.0
2018-Feb-18 05:56N 45°20' E 036°40'0 0.0
2018-Feb-18 05:30N 45°20' E 036°40'0 0.0
2018-Feb-18 04:57N 45°20' E 036°40'0 0.0
2018-Feb-18 04:29N 45°20' E 036°40'0 0.0
2018-Feb-18 04:00N 45°20' E 036°40'0 0.0
2018-Feb-18 03:28N 45°20' E 036°40'0 0.0
2018-Feb-18 02:52N 45°20' E 036°40'0 0.0
2018-Feb-18 02:29N 45°20' E 036°40'0 0.0
2018-Feb-18 01:59N 45°20' E 036°40'0 0.0
2018-Feb-18 01:29N 45°20' E 036°40'0 0.0
2018-Feb-18 00:59N 45°20' E 036°40'0 0.0
2018-Feb-18 00:28N 45°20' E 036°40'0 0.1
2018-Feb-18 00:00N 45°20' E 036°40'0 0.1
2018-Feb-17 23:27N 45°20' E 036°40'0 0.0
2018-Feb-17 23:00N 45°20' E 036°40'0 0.0
2018-Feb-17 22:27N 45°20' E 036°40'0 0.0
2018-Feb-17 21:59N 45°20' E 036°40'0 0.2
2018-Feb-17 21:29N 45°20' E 036°40'1 1.5
2018-Feb-17 20:55N 45°21' E 036°40'0 0.5
2018-Feb-17 20:29N 45°21' E 036°40'3 5.5
2018-Feb-17 20:00N 45°20' E 036°36'3 6.6
2018-Feb-17 19:30N 45°19' E 036°32'2 4.5
2018-Feb-17 19:00N 45°21' E 036°30'1 0.2
2018-Feb-17 13:06N 45°20' E 036°28'0 0.0
2018-Feb-16 20:24N 45°20' E 036°28'0 0.0
2018-Feb-16 12:40N 45°20' E 036°28'0 0.0
2018-Feb-16 11:27N 45°20' E 036°28'0 0.0
2018-Feb-16 10:59N 45°20' E 036°28'0 0.0
2018-Feb-16 10:24N 45°20' E 036°28'0 0.0
2018-Feb-16 09:54N 45°20' E 036°28'0 0.0
2018-Feb-16 09:01N 45°20' E 036°28'0 0.0
2018-Feb-16 08:47N 45°20' E 036°28'0 0.1
2018-Feb-16 08:27N 45°20' E 036°28'0 0.0
2018-Feb-16 07:44N 45°20' E 036°28'0 0.0
2018-Feb-16 07:30N 45°20' E 036°28'0 0.0
2018-Feb-16 06:59N 45°20' E 036°28'0 0.0
2018-Feb-16 06:28N 45°20' E 036°28'0 0.0
2018-Feb-16 05:05N 45°20' E 036°28'0 0.0
2018-Feb-16 04:39N 45°20' E 036°28'0 0.0
2018-Feb-16 04:19N 45°20' E 036°28'0 0.0
2018-Feb-16 02:23N 45°20' E 036°28'0 0.0
2018-Feb-16 01:53N 45°20' E 036°28'0 0.0
2018-Feb-16 01:26N 45°20' E 036°28'0 0.0
2018-Feb-15 15:54N 45°20' E 036°28'1 1.5
2018-Feb-15 15:31N 45°20' E 036°29'2 3.9
2018-Feb-15 14:59N 45°19' E 036°31'3 6.8
2018-Feb-15 14:30N 45°20' E 036°35'3 6.2
2018-Feb-15 14:00N 45°21' E 036°40'1 1.4
2018-Feb-15 13:28N 45°20' E 036°40'0 0.0
2018-Feb-15 12:57N 45°20' E 036°40'0 0.0
2018-Feb-15 12:26N 45°20' E 036°40'0 0.0
2018-Feb-15 11:55N 45°20' E 036°40'0 0.0
2018-Feb-15 11:30N 45°20' E 036°40'0 0.0
2018-Feb-15 10:59N 45°20' E 036°40'0 0.0
2018-Feb-15 10:27N 45°20' E 036°40'0 0.0
2018-Feb-15 10:00N 45°20' E 036°40'0 0.3
2018-Feb-15 09:31N 45°20' E 036°40'1 2.2
2018-Feb-15 09:01N 45°21' E 036°39'1 1.1
2018-Feb-15 08:30N 45°21' E 036°39'3 5.8
2018-Feb-15 08:00N 45°20' E 036°35'3 5.2
2018-Feb-15 07:30N 45°19' E 036°32'0 0.8
2018-Feb-15 07:00N 45°18' E 036°31'1 1.8
2018-Feb-15 06:30N 45°19' E 036°31'1 2.7
2018-Feb-15 06:00N 45°20' E 036°30'1 0.1
2018-Feb-14 10:33N 45°20' E 036°28'0 0.0
2018-Feb-14 10:17N 45°20' E 036°28'0 0.0
2018-Feb-14 09:57N 45°20' E 036°28'0 0.0
2018-Feb-14 09:22N 45°20' E 036°28'0 0.0
2018-Feb-14 08:55N 45°20' E 036°28'0 0.0
2018-Feb-14 08:29N 45°20' E 036°28'0 0.0
2018-Feb-14 07:59N 45°20' E 036°28'0 0.0
2018-Feb-14 07:30N 45°20' E 036°28'0 0.0
2018-Feb-14 07:00N 45°20' E 036°28'0 0.0
2018-Feb-14 06:30N 45°20' E 036°28'0 0.0
2018-Feb-14 06:00N 45°20' E 036°28'0 0.0
2018-Feb-14 05:29N 45°20' E 036°28'0 0.0
2018-Feb-14 05:00N 45°20' E 036°28'0 0.0
2018-Feb-14 04:30N 45°20' E 036°28'0 0.0
2018-Feb-14 04:00N 45°20' E 036°28'0 0.0
2018-Feb-14 03:28N 45°20' E 036°28'0 0.0
2018-Feb-13 23:44N 45°20' E 036°28'0 0.0
2018-Feb-13 23:29N 45°20' E 036°28'0 0.0
2018-Feb-13 14:36N 45°20' E 036°28'0 0.4
2018-Feb-13 14:21N 45°20' E 036°28'1 3.8
2018-Feb-13 14:00N 45°21' E 036°30'2 4.6
2018-Feb-13 13:30N 45°19' E 036°32'3 6.4
2018-Feb-13 13:00N 45°20' E 036°37'3 4.9
2018-Feb-13 12:28N 45°21' E 036°40'1 1.3
2018-Feb-13 11:59N 45°21' E 036°40'0 0.7
2018-Feb-13 11:27N 45°20' E 036°40'0 0.0
2018-Feb-13 11:00N 45°20' E 036°40'0 0.0
2018-Feb-13 10:30N 45°20' E 036°40'0 0.0
2018-Feb-13 10:00N 45°20' E 036°40'0 0.0
2018-Feb-13 09:30N 45°20' E 036°40'0 0.0
2018-Feb-13 08:59N 45°20' E 036°40'0 0.0
2018-Feb-13 08:30N 45°20' E 036°40'0 0.0
2018-Feb-13 08:00N 45°20' E 036°40'0 0.2
2018-Feb-13 07:30N 45°20' E 036°40'1 2.1
2018-Feb-13 07:00N 45°21' E 036°40'1 1.0
2018-Feb-13 06:25N 45°22' E 036°40'0 0.7
2018-Feb-13 05:59N 45°21' E 036°40'2 4.6
2018-Feb-13 05:30N 45°21' E 036°37'3 6.3
2018-Feb-13 05:00N 45°19' E 036°33'2 4.3
2018-Feb-13 04:30N 45°20' E 036°30'2 0.2
2018-Feb-12 17:57N 45°20' E 036°28'0 0.0
2018-Feb-12 16:53N 45°20' E 036°28'0 0.0
2018-Feb-12 13:35N 45°20' E 036°28'0 0.0
2018-Feb-12 13:26N 45°20' E 036°28'0 0.0
2018-Feb-12 12:06N 45°20' E 036°28'0 0.0
2018-Feb-12 10:56N 45°20' E 036°28'0 0.0
2018-Feb-12 10:11N 45°20' E 036°28'0 0.0
2018-Feb-12 09:45N 45°20' E 036°28'0 0.0
2018-Feb-12 09:27N 45°20' E 036°28'0 0.0
2018-Feb-12 08:58N 45°20' E 036°28'0 0.0
2018-Feb-12 08:30N 45°20' E 036°28'0 0.0
2018-Feb-12 07:34N 45°20' E 036°28'0 0.0
2018-Feb-12 07:26N 45°20' E 036°28'0 0.0
2018-Feb-12 06:46N 45°20' E 036°28'0 0.0
2018-Feb-12 06:28N 45°20' E 036°28'0 0.0
2018-Feb-12 05:56N 45°20' E 036°28'0 0.0
2018-Feb-12 05:21N 45°20' E 036°28'0 0.0
2018-Feb-12 04:47N 45°20' E 036°28'0 0.0
2018-Feb-12 04:17N 45°20' E 036°28'0 0.0
2018-Feb-12 03:55N 45°20' E 036°28'0 0.0
2018-Feb-11 19:23N 45°20' E 036°28'0 0.0
2018-Feb-11 18:59N 45°20' E 036°28'0 0.0
2018-Feb-11 18:27N 45°20' E 036°28'0 0.0
2018-Feb-11 17:50N 45°20' E 036°28'0 0.0
2018-Feb-11 17:23N 45°20' E 036°28'0 0.0
2018-Feb-11 16:52N 45°20' E 036°28'0 0.0
2018-Feb-11 14:19N 45°20' E 036°28'0 0.0
2018-Feb-11 13:49N 45°20' E 036°28'0 0.0
2018-Feb-11 13:24N 45°20' E 036°28'  
Track history (hours):
 
Tides and Currents Weather Stations Pressure Air Temp Water Temp Dewpoint Dewpoint Depression Visibility Wind Speed Wind Dir Waves Ship Positions

Svir'

Last reported at 2018-Feb-21 10:08 UTC. Time now 2018-Feb-21 21:28 UTC.
Position N 45°20' E 036°28'.

Length 106 m; draft 3.8 m.

Type: Cargo ship. MMSI: 273310800.

Date/timePositionNaut miles runAvg speedWind from/ knotsBaromVisibWave heightAir tempDewpointWater temp
2018-Feb-21 10:08N 45°20' E 036°28'0 0.0
2018-Feb-21 09:20N 45°20' E 036°28'0 0.0
2018-Feb-21 08:59N 45°20' E 036°28'0 0.0
2018-Feb-20 13:30N 45°20' E 036°28'2 3.7
2018-Feb-20 12:56N 45°20' E 036°31'2 5.0
2018-Feb-20 12:30N 45°20' E 036°34'4 7.7
2018-Feb-20 12:00N 45°21' E 036°39'2 3.3
2018-Feb-20 11:29N 45°22' E 036°41'0 0.0
2018-Feb-20 10:59N 45°22' E 036°41'0 0.0
2018-Feb-20 10:24N 45°22' E 036°41'1 1.3
2018-Feb-20 09:54N 45°21' E 036°40'1 1.7
2018-Feb-20 09:30N 45°21' E 036°40'0 0.8
2018-Feb-20 08:56N 45°20' E 036°40'0 0.0
2018-Feb-20 08:28N 45°20' E 036°40'0 0.0
2018-Feb-20 07:56N 45°20' E 036°40'0 0.0
2018-Feb-20 07:29N 45°20' E 036°40'0 0.0
2018-Feb-20 06:59N 45°20' E 036°40'0 0.0
2018-Feb-20 06:25N 45°20' E 036°40'0 0.0
2018-Feb-20 05:59N 45°20' E 036°40'0 0.0
2018-Feb-20 05:29N 45°20' E 036°40'0 0.0
2018-Feb-20 04:59N 45°20' E 036°40'0 0.6
2018-Feb-20 04:30N 45°21' E 036°40'1 1.6
2018-Feb-20 03:56N 45°21' E 036°40'0 0.4
2018-Feb-20 03:24N 45°21' E 036°40'2 4.9
2018-Feb-20 03:00N 45°21' E 036°37'3 6.4
2018-Feb-20 02:30N 45°19' E 036°33'2 4.3
2018-Feb-20 01:59N 45°20' E 036°30'2 0.1
2018-Feb-19 12:18N 45°20' E 036°28'0 0.0
2018-Feb-19 11:48N 45°20' E 036°28'0 0.0
2018-Feb-19 11:19N 45°20' E 036°28'0 0.0
2018-Feb-19 09:19N 45°20' E 036°28'0 0.0
2018-Feb-18 10:43N 45°20' E 036°28'1 2.6
2018-Feb-18 10:31N 45°20' E 036°29'2 3.6
2018-Feb-18 09:54N 45°19' E 036°31'2 5.7
2018-Feb-18 09:30N 45°20' E 036°34'3 6.5
2018-Feb-18 09:00N 45°21' E 036°38'3 4.9
2018-Feb-18 08:29N 45°22' E 036°41'0 0.0
2018-Feb-18 08:00N 45°22' E 036°41'2 3.2
2018-Feb-18 07:30N 45°21' E 036°40'1 1.8
2018-Feb-18 06:58N 45°20' E 036°40'0 0.0
2018-Feb-18 06:29N 45°20' E 036°40'0 0.0
2018-Feb-18 05:56N 45°20' E 036°40'0 0.0
2018-Feb-18 05:30N 45°20' E 036°40'0 0.0
2018-Feb-18 04:57N 45°20' E 036°40'0 0.0
2018-Feb-18 04:29N 45°20' E 036°40'0 0.0
2018-Feb-18 04:00N 45°20' E 036°40'0 0.0
2018-Feb-18 03:28N 45°20' E 036°40'0 0.0
2018-Feb-18 02:52N 45°20' E 036°40'0 0.0
2018-Feb-18 02:29N 45°20' E 036°40'0 0.0
2018-Feb-18 01:59N 45°20' E 036°40'0 0.0
2018-Feb-18 01:29N 45°20' E 036°40'0 0.0
2018-Feb-18 00:59N 45°20' E 036°40'0 0.0
2018-Feb-18 00:28N 45°20' E 036°40'0 0.1
2018-Feb-18 00:00N 45°20' E 036°40'0 0.1
2018-Feb-17 23:27N 45°20' E 036°40'0 0.0
2018-Feb-17 23:00N 45°20' E 036°40'0 0.0
2018-Feb-17 22:27N 45°20' E 036°40'0 0.0
2018-Feb-17 21:59N 45°20' E 036°40'0 0.2
2018-Feb-17 21:29N 45°20' E 036°40'1 1.5
2018-Feb-17 20:55N 45°21' E 036°40'0 0.5
2018-Feb-17 20:29N 45°21' E 036°40'3 5.5
2018-Feb-17 20:00N 45°20' E 036°36'3 6.6
2018-Feb-17 19:30N 45°19' E 036°32'2 4.5
2018-Feb-17 19:00N 45°21' E 036°30'1 0.2
2018-Feb-17 13:06N 45°20' E 036°28'0 0.0
2018-Feb-16 20:24N 45°20' E 036°28'0 0.0
2018-Feb-16 12:40N 45°20' E 036°28'0 0.0
2018-Feb-16 11:27N 45°20' E 036°28'0 0.0
2018-Feb-16 10:59N 45°20' E 036°28'0 0.0
2018-Feb-16 10:24N 45°20' E 036°28'0 0.0
2018-Feb-16 09:54N 45°20' E 036°28'0 0.0
2018-Feb-16 09:01N 45°20' E 036°28'0 0.0
2018-Feb-16 08:47N 45°20' E 036°28'0 0.1
2018-Feb-16 08:27N 45°20' E 036°28'0 0.0
2018-Feb-16 07:44N 45°20' E 036°28'0 0.0
2018-Feb-16 07:30N 45°20' E 036°28'0 0.0
2018-Feb-16 06:59N 45°20' E 036°28'0 0.0
2018-Feb-16 06:28N 45°20' E 036°28'0 0.0
2018-Feb-16 05:05N 45°20' E 036°28'0 0.0
2018-Feb-16 04:39N 45°20' E 036°28'0 0.0
2018-Feb-16 04:19N 45°20' E 036°28'0 0.0
2018-Feb-16 02:23N 45°20' E 036°28'0 0.0
2018-Feb-16 01:53N 45°20' E 036°28'0 0.0
2018-Feb-16 01:26N 45°20' E 036°28'0 0.0
2018-Feb-15 15:54N 45°20' E 036°28'1 1.5
2018-Feb-15 15:31N 45°20' E 036°29'2 3.9
2018-Feb-15 14:59N 45°19' E 036°31'3 6.8
2018-Feb-15 14:30N 45°20' E 036°35'3 6.2
2018-Feb-15 14:00N 45°21' E 036°40'1 1.4
2018-Feb-15 13:28N 45°20' E 036°40'0 0.0
2018-Feb-15 12:57N 45°20' E 036°40'0 0.0
2018-Feb-15 12:26N 45°20' E 036°40'0 0.0
2018-Feb-15 11:55N 45°20' E 036°40'0 0.0
2018-Feb-15 11:30N 45°20' E 036°40'0 0.0
2018-Feb-15 10:59N 45°20' E 036°40'0 0.0
2018-Feb-15 10:27N 45°20' E 036°40'0 0.0
2018-Feb-15 10:00N 45°20' E 036°40'0 0.3
2018-Feb-15 09:31N 45°20' E 036°40'1 2.2
2018-Feb-15 09:01N 45°21' E 036°39'1 1.1
2018-Feb-15 08:30N 45°21' E 036°39'3 5.8
2018-Feb-15 08:00N 45°20' E 036°35'3 5.2
2018-Feb-15 07:30N 45°19' E 036°32'0 0.8
2018-Feb-15 07:00N 45°18' E 036°31'1 1.8
2018-Feb-15 06:30N 45°19' E 036°31'1 2.7
2018-Feb-15 06:00N 45°20' E 036°30'1 0.1
2018-Feb-14 10:33N 45°20' E 036°28'0 0.0
2018-Feb-14 10:17N 45°20' E 036°28'0 0.0
2018-Feb-14 09:57N 45°20' E 036°28'0 0.0
2018-Feb-14 09:22N 45°20' E 036°28'0 0.0
2018-Feb-14 08:55N 45°20' E 036°28'0 0.0
2018-Feb-14 08:29N 45°20' E 036°28'0 0.0
2018-Feb-14 07:59N 45°20' E 036°28'0 0.0
2018-Feb-14 07:30N 45°20' E 036°28'0 0.0
2018-Feb-14 07:00N 45°20' E 036°28'0 0.0
2018-Feb-14 06:30N 45°20' E 036°28'0 0.0
2018-Feb-14 06:00N 45°20' E 036°28'0 0.0
2018-Feb-14 05:29N 45°20' E 036°28'0 0.0
2018-Feb-14 05:00N 45°20' E 036°28'0 0.0
2018-Feb-14 04:30N 45°20' E 036°28'0 0.0
2018-Feb-14 04:00N 45°20' E 036°28'0 0.0
2018-Feb-14 03:28N 45°20' E 036°28'0 0.0
2018-Feb-13 23:44N 45°20' E 036°28'0 0.0
2018-Feb-13 23:29N 45°20' E 036°28'0 0.0
2018-Feb-13 14:36N 45°20' E 036°28'0 0.4
2018-Feb-13 14:21N 45°20' E 036°28'1 3.8
2018-Feb-13 14:00N 45°21' E 036°30'2 4.6
2018-Feb-13 13:30N 45°19' E 036°32'3 6.4
2018-Feb-13 13:00N 45°20' E 036°37'3 4.9
2018-Feb-13 12:28N 45°21' E 036°40'1 1.3
2018-Feb-13 11:59N 45°21' E 036°40'0 0.7
2018-Feb-13 11:27N 45°20' E 036°40'0 0.0
2018-Feb-13 11:00N 45°20' E 036°40'0 0.0
2018-Feb-13 10:30N 45°20' E 036°40'0 0.0
2018-Feb-13 10:00N 45°20' E 036°40'0 0.0
2018-Feb-13 09:30N 45°20' E 036°40'0 0.0
2018-Feb-13 08:59N 45°20' E 036°40'0 0.0
2018-Feb-13 08:30N 45°20' E 036°40'0 0.0
2018-Feb-13 08:00N 45°20' E 036°40'0 0.2
2018-Feb-13 07:30N 45°20' E 036°40'1 2.1
2018-Feb-13 07:00N 45°21' E 036°40'1 1.0
2018-Feb-13 06:25N 45°22' E 036°40'0 0.7
2018-Feb-13 05:59N 45°21' E 036°40'2 4.6
2018-Feb-13 05:30N 45°21' E 036°37'3 6.3
2018-Feb-13 05:00N 45°19' E 036°33'2 4.3
2018-Feb-13 04:30N 45°20' E 036°30'2 0.2
2018-Feb-12 17:57N 45°20' E 036°28'0 0.0
2018-Feb-12 16:53N 45°20' E 036°28'0 0.0
2018-Feb-12 13:35N 45°20' E 036°28'0 0.0
2018-Feb-12 13:26N 45°20' E 036°28'0 0.0
2018-Feb-12 12:06N 45°20' E 036°28'0 0.0
2018-Feb-12 10:56N 45°20' E 036°28'0 0.0
2018-Feb-12 10:11N 45°20' E 036°28'0 0.0
2018-Feb-12 09:45N 45°20' E 036°28'0 0.0
2018-Feb-12 09:27N 45°20' E 036°28'0 0.0
2018-Feb-12 08:58N 45°20' E 036°28'0 0.0
2018-Feb-12 08:30N 45°20' E 036°28'0 0.0
2018-Feb-12 07:34N 45°20' E 036°28'0 0.0
2018-Feb-12 07:26N 45°20' E 036°28'0 0.0
2018-Feb-12 06:46N 45°20' E 036°28'0 0.0
2018-Feb-12 06:28N 45°20' E 036°28'0 0.0
2018-Feb-12 05:56N 45°20' E 036°28'0 0.0
2018-Feb-12 05:21N 45°20' E 036°28'0 0.0
2018-Feb-12 04:47N 45°20' E 036°28'0 0.0
2018-Feb-12 04:17N 45°20' E 036°28'0 0.0
2018-Feb-12 03:55N 45°20' E 036°28'0 0.0
2018-Feb-11 19:23N 45°20' E 036°28'0 0.0
2018-Feb-11 18:59N 45°20' E 036°28'0 0.0
2018-Feb-11 18:27N 45°20' E 036°28'0 0.0
2018-Feb-11 17:50N 45°20' E 036°28'0 0.0
2018-Feb-11 17:23N 45°20' E 036°28'0 0.0
2018-Feb-11 16:52N 45°20' E 036°28'0 0.0
2018-Feb-11 14:19N 45°20' E 036°28'0 0.0
2018-Feb-11 13:49N 45°20' E 036°28'0 0.0
2018-Feb-11 13:24N 45°20' E 036°28'  

Dump ship's entire track history